Terminal Aerodrome Forecast
Issued by NWS Sterling, VA

Current Version | Previous Version | Graphics & Text | Print | Product List | Glossary On
Versions: 1 2 3 4 5 6 7 8 9 10 11 12 13 14 15 16 17 18 19 20 21 22
000
FTUS41 KLWX 221900 AAA
TAFMRB
TAF AMD
KMRB 221954Z 2220/2318 VRB03KT 2SM -FZRA BR OVC015
     FM230300 VRB03KT 2SM -DZ BR BKN008
     FM230700 VRB03KT 3SM -DZ BR OVC003
     FM231500 VRB03KT 3SM -DZ BR OVC008=

USA.gov is the U.S. government's official web portal to all federal, state and local government web resources and services.